Arch, New Mexico
Current Conditions -  °F | °C
As of 8:58 AM on Friday 24 Oct 2014 (Local Time) from KCVS Reporting Station
Clear Clear  
Wind Chill: 15°   Ceiling: Unl
Heat Index: 15°   Visibility: 10mi
Dew Point: 10°   Wind: 8mph
Humidity: 72%   Direction: 270°W
Pressure: 30.22"   Gusts: NA
Location:  34.1669°N, 103.266°W
Report Text: KCVS 241458Z AUTO 27007KT 10SM CLR 15/10 A3022 RMK AO2 SLP193 T01460096 52013 $
Loading
Personal Weather Stations






























Interactive Weather Map
Tropical Storm Tracking
New forecast layout! Learn more

10-Day Weather Forecast

Advertisements
Track Severe Weather on mobile